sensor_id;sensor_type;location;lat;lon;timestamp;P1;durP1;ratioP1;P2;durP2;ratioP2
28447;SDS011;15675;52.870;-1.416;2023-05-19T00:01:40;18.50;;;9.43;;
28447;SDS011;15675;52.870;-1.416;2023-05-19T00:04:08;23.88;;;8.90;;
28447;SDS011;15675;52.870;-1.416;2023-05-19T00:06:37;17.55;;;8.75;;
28447;SDS011;15675;52.870;-1.416;2023-05-19T00:09:04;20.13;;;8.70;;
28447;SDS011;15675;52.870;-1.416;2023-05-19T00:11:32;20.00;;;9.07;;
28447;SDS011;15675;52.870;-1.416;2023-05-19T00:14:00;22.20;;;9.52;;
28447;SDS011;15675;52.870;-1.416;2023-05-19T00:16:28;21.75;;;9.80;;
28447;SDS011;15675;52.870;-1.416;2023-05-19T00:18:56;16.65;;;9.00;;
28447;SDS011;15675;52.870;-1.416;2023-05-19T00:21:24;14.95;;;8.23;;
28447;SDS011;15675;52.870;-1.416;2023-05-19T00:23:50;16.30;;;8.88;;
28447;SDS011;15675;52.870;-1.416;2023-05-19T00:26:17;16.33;;;7.95;;
28447;SDS011;15675;52.870;-1.416;2023-05-19T00:28:42;13.60;;;8.55;;
28447;SDS011;15675;52.870;-1.416;2023-05-19T00:31:08;16.65;;;7.97;;
28447;SDS011;15675;52.870;-1.416;2023-05-19T00:33:34;17.92;;;7.43;;
28447;SDS011;15675;52.870;-1.416;2023-05-19T00:36:01;14.40;;;7.75;;
28447;SDS011;15675;52.870;-1.416;2023-05-19T00:38:29;15.38;;;7.60;;
28447;SDS011;15675;52.870;-1.416;2023-05-19T00:40:56;14.60;;;7.43;;
28447;SDS011;15675;52.870;-1.416;2023-05-19T00:43:22;19.30;;;7.43;;
28447;SDS011;15675;52.870;-1.416;2023-05-19T00:45:49;15.00;;;7.07;;
28447;SDS011;15675;52.870;-1.416;2023-05-19T00:48:16;14.52;;;7.43;;
28447;SDS011;15675;52.870;-1.416;2023-05-19T00:50:41;14.82;;;7.45;;
28447;SDS011;15675;52.870;-1.416;2023-05-19T00:53:08;16.48;;;7.38;;
28447;SDS011;15675;52.870;-1.416;2023-05-19T00:55:36;15.93;;;7.20;;
28447;SDS011;15675;52.870;-1.416;2023-05-19T00:58:05;15.82;;;7.43;;
28447;SDS011;15675;52.870;-1.416;2023-05-19T01:00:33;16.08;;;7.38;;
28447;SDS011;15675;52.870;-1.416;2023-05-19T01:03:01;16.98;;;7.70;;
28447;SDS011;15675;52.870;-1.416;2023-05-19T01:05:39;16.27;;;6.88;;
28447;SDS011;15675;52.870;-1.416;2023-05-19T01:08:06;12.45;;;7.05;;
28447;SDS011;15675;52.870;-1.416;2023-05-19T01:10:32;11.40;;;7.03;;
28447;SDS011;15675;52.870;-1.416;2023-05-19T01:12:59;18.80;;;7.13;;
28447;SDS011;15675;52.870;-1.416;2023-05-19T01:15:26;16.55;;;6.95;;
28447;SDS011;15675;52.870;-1.416;2023-05-19T01:20:43;17.10;;;7.03;;
28447;SDS011;15675;52.870;-1.416;2023-05-19T01:23:20;13.33;;;6.63;;
28447;SDS011;15675;52.870;-1.416;2023-05-19T01:26:21;12.88;;;6.53;;
28447;SDS011;15675;52.870;-1.416;2023-05-19T01:29:06;14.13;;;7.00;;
28447;SDS011;15675;52.870;-1.416;2023-05-19T01:31:41;12.25;;;6.88;;
28447;SDS011;15675;52.870;-1.416;2023-05-19T01:34:11;19.15;;;7.55;;
28447;SDS011;15675;52.870;-1.416;2023-05-19T01:36:39;13.18;;;6.63;;
28447;SDS011;15675;52.870;-1.416;2023-05-19T01:39:09;12.63;;;7.35;;
28447;SDS011;15675;52.870;-1.416;2023-05-19T01:41:36;14.55;;;7.25;;
28447;SDS011;15675;52.870;-1.416;2023-05-19T01:44:04;14.73;;;7.45;;
28447;SDS011;15675;52.870;-1.416;2023-05-19T01:46:30;12.40;;;7.10;;
28447;SDS011;15675;52.870;-1.416;2023-05-19T01:48:57;15.65;;;6.97;;
28447;SDS011;15675;52.870;-1.416;2023-05-19T01:51:23;17.13;;;6.53;;
28447;SDS011;15675;52.870;-1.416;2023-05-19T01:53:49;10.80;;;5.88;;
28447;SDS011;15675;52.870;-1.416;2023-05-19T01:56:16;15.63;;;7.88;;
28447;SDS011;15675;52.870;-1.416;2023-05-19T01:58:52;16.38;;;7.03;;
28447;SDS011;15675;52.870;-1.416;2023-05-19T02:01:46;11.20;;;6.45;;
28447;SDS011;15675;52.870;-1.416;2023-05-19T02:04:23;10.73;;;6.53;;
28447;SDS011;15675;52.870;-1.416;2023-05-19T02:07:02;14.35;;;7.13;;
28447;SDS011;15675;52.870;-1.416;2023-05-19T02:09:57;18.17;;;7.18;;
28447;SDS011;15675;52.870;-1.416;2023-05-19T02:12:30;15.63;;;7.20;;
28447;SDS011;15675;52.870;-1.416;2023-05-19T02:15:02;11.43;;;6.30;;
28447;SDS011;15675;52.870;-1.416;2023-05-19T02:17:32;14.45;;;7.20;;
28447;SDS011;15675;52.870;-1.416;2023-05-19T02:20:01;15.23;;;6.40;;
28447;SDS011;15675;52.870;-1.416;2023-05-19T02:22:29;17.02;;;7.40;;
28447;SDS011;15675;52.870;-1.416;2023-05-19T02:24:55;14.00;;;7.03;;
28447;SDS011;15675;52.870;-1.416;2023-05-19T02:27:22;13.20;;;7.43;;
28447;SDS011;15675;52.870;-1.416;2023-05-19T02:29:48;14.80;;;7.18;;
28447;SDS011;15675;52.870;-1.416;2023-05-19T02:32:14;18.30;;;7.18;;
28447;SDS011;15675;52.870;-1.416;2023-05-19T02:34:40;13.30;;;8.23;;
28447;SDS011;15675;52.870;-1.416;2023-05-19T02:37:11;18.27;;;7.72;;
28447;SDS011;15675;52.870;-1.416;2023-05-19T02:39:39;15.35;;;7.25;;
28447;SDS011;15675;52.870;-1.416;2023-05-19T02:42:05;14.23;;;8.20;;
28447;SDS011;15675;52.870;-1.416;2023-05-19T02:44:32;12.52;;;7.80;;
28447;SDS011;15675;52.870;-1.416;2023-05-19T02:46:57;16.83;;;7.30;;
28447;SDS011;15675;52.870;-1.416;2023-05-19T02:49:23;17.02;;;8.50;;
28447;SDS011;15675;52.870;-1.416;2023-05-19T02:51:49;13.75;;;7.07;;
28447;SDS011;15675;52.870;-1.416;2023-05-19T02:54:15;17.67;;;7.18;;
28447;SDS011;15675;52.870;-1.416;2023-05-19T02:56:41;14.27;;;6.45;;
28447;SDS011;15675;52.870;-1.416;2023-05-19T02:59:07;15.02;;;6.65;;
28447;SDS011;15675;52.870;-1.416;2023-05-19T03:01:33;17.60;;;6.68;;
28447;SDS011;15675;52.870;-1.416;2023-05-19T03:03:59;9.95;;;6.30;;
28447;SDS011;15675;52.870;-1.416;2023-05-19T03:06:25;11.60;;;6.65;;
28447;SDS011;15675;52.870;-1.416;2023-05-19T03:08:51;15.32;;;6.22;;
28447;SDS011;15675;52.870;-1.416;2023-05-19T03:11:17;14.48;;;6.93;;
28447;SDS011;15675;52.870;-1.416;2023-05-19T03:13:42;15.57;;;7.32;;
28447;SDS011;15675;52.870;-1.416;2023-05-19T03:16:08;12.40;;;7.57;;
28447;SDS011;15675;52.870;-1.416;2023-05-19T03:18:36;15.35;;;7.53;;
28447;SDS011;15675;52.870;-1.416;2023-05-19T03:21:02;15.35;;;7.93;;
28447;SDS011;15675;52.870;-1.416;2023-05-19T03:23:28;14.05;;;6.95;;
28447;SDS011;15675;52.870;-1.416;2023-05-19T03:25:56;11.40;;;7.18;;
28447;SDS011;15675;52.870;-1.416;2023-05-19T03:28:22;12.50;;;6.57;;
28447;SDS011;15675;52.870;-1.416;2023-05-19T03:30:48;15.25;;;7.47;;
28447;SDS011;15675;52.870;-1.416;2023-05-19T03:33:15;17.10;;;7.68;;
28447;SDS011;15675;52.870;-1.416;2023-05-19T03:35:41;18.23;;;7.78;;
28447;SDS011;15675;52.870;-1.416;2023-05-19T03:38:08;18.17;;;7.68;;
28447;SDS011;15675;52.870;-1.416;2023-05-19T03:40:34;16.02;;;7.60;;
28447;SDS011;15675;52.870;-1.416;2023-05-19T03:43:00;17.20;;;7.70;;
28447;SDS011;15675;52.870;-1.416;2023-05-19T03:45:26;14.35;;;7.30;;
28447;SDS011;15675;52.870;-1.416;2023-05-19T03:47:52;9.77;;;6.78;;
28447;SDS011;15675;52.870;-1.416;2023-05-19T03:50:19;12.57;;;7.10;;
28447;SDS011;15675;52.870;-1.416;2023-05-19T03:52:45;11.10;;;7.00;;
28447;SDS011;15675;52.870;-1.416;2023-05-19T03:55:12;15.13;;;7.50;;
28447;SDS011;15675;52.870;-1.416;2023-05-19T03:57:39;17.52;;;8.60;;
28447;SDS011;15675;52.870;-1.416;2023-05-19T04:00:06;12.07;;;6.63;;
28447;SDS011;15675;52.870;-1.416;2023-05-19T04:02:32;15.18;;;7.80;;
28447;SDS011;15675;52.870;-1.416;2023-05-19T04:04:58;15.88;;;7.70;;
28447;SDS011;15675;52.870;-1.416;2023-05-19T04:07:24;18.27;;;7.75;;
28447;SDS011;15675;52.870;-1.416;2023-05-19T04:09:50;17.42;;;8.40;;
28447;SDS011;15675;52.870;-1.416;2023-05-19T04:12:16;15.05;;;8.13;;
28447;SDS011;15675;52.870;-1.416;2023-05-19T04:14:42;16.33;;;9.10;;
28447;SDS011;15675;52.870;-1.416;2023-05-19T04:17:08;16.13;;;8.73;;
28447;SDS011;15675;52.870;-1.416;2023-05-19T04:19:34;15.63;;;7.63;;
28447;SDS011;15675;52.870;-1.416;2023-05-19T04:21:59;19.75;;;9.07;;
28447;SDS011;15675;52.870;-1.416;2023-05-19T04:24:25;21.08;;;8.90;;
28447;SDS011;15675;52.870;-1.416;2023-05-19T04:26:51;19.50;;;8.68;;
28447;SDS011;15675;52.870;-1.416;2023-05-19T04:29:17;20.63;;;8.57;;
28447;SDS011;15675;52.870;-1.416;2023-05-19T04:31:43;16.65;;;8.50;;
28447;SDS011;15675;52.870;-1.416;2023-05-19T04:34:10;15.93;;;8.38;;
28447;SDS011;15675;52.870;-1.416;2023-05-19T04:36:36;16.38;;;7.97;;
28447;SDS011;15675;52.870;-1.416;2023-05-19T04:39:02;14.43;;;7.72;;
28447;SDS011;15675;52.870;-1.416;2023-05-19T04:41:32;18.05;;;8.45;;
28447;SDS011;15675;52.870;-1.416;2023-05-19T04:43:59;17.45;;;8.73;;
28447;SDS011;15675;52.870;-1.416;2023-05-19T04:46:25;18.98;;;9.02;;
28447;SDS011;15675;52.870;-1.416;2023-05-19T04:48:54;18.38;;;8.02;;
28447;SDS011;15675;52.870;-1.416;2023-05-19T04:51:21;14.93;;;7.68;;
28447;SDS011;15675;52.870;-1.416;2023-05-19T04:53:53;17.88;;;8.45;;
28447;SDS011;15675;52.870;-1.416;2023-05-19T04:56:20;15.20;;;8.48;;
28447;SDS011;15675;52.870;-1.416;2023-05-19T04:58:46;15.18;;;8.10;;
28447;SDS011;15675;52.870;-1.416;2023-05-19T05:01:12;15.00;;;7.68;;
28447;SDS011;15675;52.870;-1.416;2023-05-19T05:03:40;15.25;;;8.00;;
28447;SDS011;15675;52.870;-1.416;2023-05-19T05:06:06;16.33;;;8.13;;
28447;SDS011;15675;52.870;-1.416;2023-05-19T05:08:33;14.80;;;8.23;;
28447;SDS011;15675;52.870;-1.416;2023-05-19T05:10:59;16.55;;;8.63;;
28447;SDS011;15675;52.870;-1.416;2023-05-19T05:13:25;20.02;;;8.98;;
28447;SDS011;15675;52.870;-1.416;2023-05-19T05:15:52;16.33;;;8.27;;
28447;SDS011;15675;52.870;-1.416;2023-05-19T05:18:18;18.10;;;8.38;;
28447;SDS011;15675;52.870;-1.416;2023-05-19T05:20:45;13.57;;;7.55;;
28447;SDS011;15675;52.870;-1.416;2023-05-19T05:23:11;18.05;;;7.15;;
28447;SDS011;15675;52.870;-1.416;2023-05-19T05:25:39;17.38;;;7.95;;
28447;SDS011;15675;52.870;-1.416;2023-05-19T05:28:05;13.27;;;7.90;;
28447;SDS011;15675;52.870;-1.416;2023-05-19T05:30:33;13.23;;;7.45;;
28447;SDS011;15675;52.870;-1.416;2023-05-19T05:32:59;14.38;;;7.15;;
28447;SDS011;15675;52.870;-1.416;2023-05-19T05:35:26;13.55;;;7.22;;
28447;SDS011;15675;52.870;-1.416;2023-05-19T05:37:52;15.02;;;7.78;;
28447;SDS011;15675;52.870;-1.416;2023-05-19T05:40:18;16.20;;;7.15;;
28447;SDS011;15675;52.870;-1.416;2023-05-19T05:42:44;15.27;;;6.95;;
28447;SDS011;15675;52.870;-1.416;2023-05-19T05:45:10;15.40;;;7.60;;
28447;SDS011;15675;52.870;-1.416;2023-05-19T05:47:36;13.50;;;7.68;;
28447;SDS011;15675;52.870;-1.416;2023-05-19T05:50:05;13.65;;;7.35;;
28447;SDS011;15675;52.870;-1.416;2023-05-19T05:52:32;12.35;;;6.90;;
28447;SDS011;15675;52.870;-1.416;2023-05-19T05:55:01;13.30;;;7.05;;
28447;SDS011;15675;52.870;-1.416;2023-05-19T05:57:27;15.75;;;7.00;;
28447;SDS011;15675;52.870;-1.416;2023-05-19T05:59:55;15.07;;;7.28;;
28447;SDS011;15675;52.870;-1.416;2023-05-19T06:02:21;14.25;;;6.22;;
28447;SDS011;15675;52.870;-1.416;2023-05-19T06:04:47;14.20;;;6.90;;
28447;SDS011;15675;52.870;-1.416;2023-05-19T06:07:13;18.00;;;6.15;;
28447;SDS011;15675;52.870;-1.416;2023-05-19T06:09:39;13.43;;;6.20;;
28447;SDS011;15675;52.870;-1.416;2023-05-19T06:12:05;13.88;;;6.32;;
28447;SDS011;15675;52.870;-1.416;2023-05-19T06:14:31;11.77;;;5.55;;
28447;SDS011;15675;52.870;-1.416;2023-05-19T06:16:57;14.45;;;6.07;;
28447;SDS011;15675;52.870;-1.416;2023-05-19T06:19:23;8.82;;;5.38;;
28447;SDS011;15675;52.870;-1.416;2023-05-19T06:21:50;13.75;;;5.50;;
28447;SDS011;15675;52.870;-1.416;2023-05-19T06:24:16;10.90;;;5.10;;
28447;SDS011;15675;52.870;-1.416;2023-05-19T06:26:42;13.52;;;5.88;;
28447;SDS011;15675;52.870;-1.416;2023-05-19T06:29:08;11.48;;;4.90;;
28447;SDS011;15675;52.870;-1.416;2023-05-19T06:31:34;9.60;;;4.88;;
28447;SDS011;15675;52.870;-1.416;2023-05-19T06:33:59;9.60;;;5.50;;
28447;SDS011;15675;52.870;-1.416;2023-05-19T06:36:26;18.55;;;4.95;;
28447;SDS011;15675;52.870;-1.416;2023-05-19T06:38:52;17.58;;;5.38;;
28447;SDS011;15675;52.870;-1.416;2023-05-19T06:41:17;11.32;;;5.30;;
28447;SDS011;15675;52.870;-1.416;2023-05-19T06:43:43;15.93;;;5.40;;
28447;SDS011;15675;52.870;-1.416;2023-05-19T06:46:09;10.40;;;5.53;;
28447;SDS011;15675;52.870;-1.416;2023-05-19T06:48:38;14.57;;;7.03;;
28447;SDS011;15675;52.870;-1.416;2023-05-19T06:51:03;11.63;;;6.75;;
28447;SDS011;15675;52.870;-1.416;2023-05-19T06:53:29;13.75;;;7.00;;
28447;SDS011;15675;52.870;-1.416;2023-05-19T06:55:56;12.38;;;6.47;;
28447;SDS011;15675;52.870;-1.416;2023-05-19T06:58:22;12.98;;;6.78;;
28447;SDS011;15675;52.870;-1.416;2023-05-19T07:00:47;13.50;;;6.10;;
28447;SDS011;15675;52.870;-1.416;2023-05-19T07:03:13;17.05;;;7.32;;
28447;SDS011;15675;52.870;-1.416;2023-05-19T07:05:39;9.95;;;6.40;;
28447;SDS011;15675;52.870;-1.416;2023-05-19T07:08:05;19.48;;;6.57;;
28447;SDS011;15675;52.870;-1.416;2023-05-19T07:10:32;10.32;;;6.45;;
28447;SDS011;15675;52.870;-1.416;2023-05-19T07:12:58;12.80;;;6.78;;
28447;SDS011;15675;52.870;-1.416;2023-05-19T07:15:24;12.40;;;6.47;;
28447;SDS011;15675;52.870;-1.416;2023-05-19T07:17:50;14.80;;;6.15;;
28447;SDS011;15675;52.870;-1.416;2023-05-19T07:20:16;9.82;;;5.90;;
28447;SDS011;15675;52.870;-1.416;2023-05-19T07:22:42;14.43;;;6.55;;
28447;SDS011;15675;52.870;-1.416;2023-05-19T07:25:08;12.13;;;6.18;;
28447;SDS011;15675;52.870;-1.416;2023-05-19T07:27:34;12.93;;;6.38;;
28447;SDS011;15675;52.870;-1.416;2023-05-19T07:30:00;16.30;;;6.38;;
28447;SDS011;15675;52.870;-1.416;2023-05-19T07:32:28;12.15;;;6.32;;
28447;SDS011;15675;52.870;-1.416;2023-05-19T07:34:54;11.55;;;6.07;;
28447;SDS011;15675;52.870;-1.416;2023-05-19T07:37:19;10.77;;;5.97;;
28447;SDS011;15675;52.870;-1.416;2023-05-19T07:39:45;15.50;;;6.50;;
28447;SDS011;15675;52.870;-1.416;2023-05-19T07:42:11;15.88;;;6.63;;
28447;SDS011;15675;52.870;-1.416;2023-05-19T07:44:37;12.23;;;5.47;;
28447;SDS011;15675;52.870;-1.416;2023-05-19T07:47:04;11.13;;;5.93;;
28447;SDS011;15675;52.870;-1.416;2023-05-19T07:49:30;16.02;;;6.20;;
28447;SDS011;15675;52.870;-1.416;2023-05-19T07:51:57;11.27;;;5.32;;
28447;SDS011;15675;52.870;-1.416;2023-05-19T07:54:27;11.55;;;5.80;;
28447;SDS011;15675;52.870;-1.416;2023-05-19T07:56:53;15.15;;;6.43;;
28447;SDS011;15675;52.870;-1.416;2023-05-19T07:59:19;13.85;;;5.53;;
28447;SDS011;15675;52.870;-1.416;2023-05-19T08:01:45;11.85;;;5.65;;
28447;SDS011;15675;52.870;-1.416;2023-05-19T08:04:11;12.57;;;5.55;;
28447;SDS011;15675;52.870;-1.416;2023-05-19T08:06:37;12.52;;;4.75;;
28447;SDS011;15675;52.870;-1.416;2023-05-19T08:09:03;7.63;;;4.45;;
28447;SDS011;15675;52.870;-1.416;2023-05-19T08:11:30;12.77;;;4.70;;
28447;SDS011;15675;52.870;-1.416;2023-05-19T08:13:55;9.80;;;4.10;;
28447;SDS011;15675;52.870;-1.416;2023-05-19T08:16:21;12.50;;;4.18;;
28447;SDS011;15675;52.870;-1.416;2023-05-19T08:18:48;6.35;;;3.83;;
28447;SDS011;15675;52.870;-1.416;2023-05-19T08:21:14;9.15;;;3.72;;
28447;SDS011;15675;52.870;-1.416;2023-05-19T08:23:40;17.25;;;5.40;;
28447;SDS011;15675;52.870;-1.416;2023-05-19T08:26:06;10.60;;;4.50;;
28447;SDS011;15675;52.870;-1.416;2023-05-19T08:28:32;9.38;;;5.20;;
28447;SDS011;15675;52.870;-1.416;2023-05-19T08:30:58;12.38;;;4.65;;
28447;SDS011;15675;52.870;-1.416;2023-05-19T08:33:24;13.63;;;4.75;;
28447;SDS011;15675;52.870;-1.416;2023-05-19T08:35:50;11.45;;;5.13;;
28447;SDS011;15675;52.870;-1.416;2023-05-19T08:38:16;7.90;;;5.03;;
28447;SDS011;15675;52.870;-1.416;2023-05-19T08:40:42;15.70;;;4.70;;
28447;SDS011;15675;52.870;-1.416;2023-05-19T08:43:11;9.80;;;5.03;;
28447;SDS011;15675;52.870;-1.416;2023-05-19T08:45:38;11.65;;;4.90;;
28447;SDS011;15675;52.870;-1.416;2023-05-19T08:48:07;11.18;;;4.60;;
28447;SDS011;15675;52.870;-1.416;2023-05-19T08:50:34;11.73;;;5.25;;
28447;SDS011;15675;52.870;-1.416;2023-05-19T08:53:07;9.10;;;4.57;;
28447;SDS011;15675;52.870;-1.416;2023-05-19T08:55:41;12.73;;;5.13;;
28447;SDS011;15675;52.870;-1.416;2023-05-19T08:58:15;11.00;;;5.07;;
28447;SDS011;15675;52.870;-1.416;2023-05-19T09:00:45;9.68;;;5.15;;
28447;SDS011;15675;52.870;-1.416;2023-05-19T09:03:12;11.70;;;4.90;;
28447;SDS011;15675;52.870;-1.416;2023-05-19T09:05:40;13.57;;;4.35;;
28447;SDS011;15675;52.870;-1.416;2023-05-19T09:08:06;10.77;;;4.68;;
28447;SDS011;15675;52.870;-1.416;2023-05-19T09:10:32;14.43;;;5.88;;
28447;SDS011;15675;52.870;-1.416;2023-05-19T09:12:58;10.35;;;4.60;;
28447;SDS011;15675;52.870;-1.416;2023-05-19T09:15:25;9.18;;;3.88;;
28447;SDS011;15675;52.870;-1.416;2023-05-19T09:18:09;16.08;;;5.72;;
28447;SDS011;15675;52.870;-1.416;2023-05-19T09:20:39;6.60;;;3.72;;
28447;SDS011;15675;52.870;-1.416;2023-05-19T09:23:06;7.95;;;3.80;;
28447;SDS011;15675;52.870;-1.416;2023-05-19T09:25:32;11.55;;;4.38;;
28447;SDS011;15675;52.870;-1.416;2023-05-19T09:27:58;7.28;;;4.32;;
28447;SDS011;15675;52.870;-1.416;2023-05-19T09:30:24;9.25;;;4.00;;
28447;SDS011;15675;52.870;-1.416;2023-05-19T09:32:50;10.93;;;4.03;;
28447;SDS011;15675;52.870;-1.416;2023-05-19T09:35:16;9.88;;;3.90;;
28447;SDS011;15675;52.870;-1.416;2023-05-19T09:37:44;9.85;;;3.75;;
28447;SDS011;15675;52.870;-1.416;2023-05-19T09:40:13;7.13;;;3.88;;
28447;SDS011;15675;52.870;-1.416;2023-05-19T09:42:39;6.40;;;3.47;;
28447;SDS011;15675;52.870;-1.416;2023-05-19T09:45:07;9.43;;;3.67;;
28447;SDS011;15675;52.870;-1.416;2023-05-19T09:47:37;6.78;;;4.00;;
28447;SDS011;15675;52.870;-1.416;2023-05-19T09:50:05;10.32;;;3.83;;
28447;SDS011;15675;52.870;-1.416;2023-05-19T09:52:36;10.20;;;4.70;;
28447;SDS011;15675;52.870;-1.416;2023-05-19T09:55:03;9.70;;;4.18;;
28447;SDS011;15675;52.870;-1.416;2023-05-19T09:57:32;7.75;;;3.80;;
28447;SDS011;15675;52.870;-1.416;2023-05-19T10:00:09;8.10;;;3.30;;
28447;SDS011;15675;52.870;-1.416;2023-05-19T10:02:36;7.30;;;3.80;;
28447;SDS011;15675;52.870;-1.416;2023-05-19T10:05:07;10.13;;;3.53;;
28447;SDS011;15675;52.870;-1.416;2023-05-19T10:07:37;8.18;;;3.38;;
28447;SDS011;15675;52.870;-1.416;2023-05-19T10:10:07;7.20;;;3.65;;
28447;SDS011;15675;52.870;-1.416;2023-05-19T10:12:36;8.55;;;3.40;;
28447;SDS011;15675;52.870;-1.416;2023-05-19T10:15:05;12.85;;;4.30;;
28447;SDS011;15675;52.870;-1.416;2023-05-19T10:17:33;9.88;;;4.43;;
28447;SDS011;15675;52.870;-1.416;2023-05-19T10:20:01;14.13;;;5.40;;
28447;SDS011;15675;52.870;-1.416;2023-05-19T10:22:28;11.38;;;4.60;;
28447;SDS011;15675;52.870;-1.416;2023-05-19T10:24:54;10.30;;;4.72;;
28447;SDS011;15675;52.870;-1.416;2023-05-19T10:27:20;13.57;;;4.82;;
28447;SDS011;15675;52.870;-1.416;2023-05-19T10:29:48;13.52;;;4.53;;
28447;SDS011;15675;52.870;-1.416;2023-05-19T10:32:17;12.15;;;4.47;;
28447;SDS011;15675;52.870;-1.416;2023-05-19T10:34:52;12.70;;;5.23;;
28447;SDS011;15675;52.870;-1.416;2023-05-19T10:37:36;12.82;;;4.70;;
28447;SDS011;15675;52.870;-1.416;2023-05-19T10:40:11;13.27;;;4.70;;
28447;SDS011;15675;52.870;-1.416;2023-05-19T10:42:51;13.65;;;5.18;;
28447;SDS011;15675;52.870;-1.416;2023-05-19T10:45:40;8.27;;;5.28;;
28447;SDS011;15675;52.870;-1.416;2023-05-19T10:48:13;12.57;;;5.60;;
28447;SDS011;15675;52.870;-1.416;2023-05-19T10:50:42;11.38;;;5.60;;
28447;SDS011;15675;52.870;-1.416;2023-05-19T10:53:13;15.20;;;5.85;;
28447;SDS011;15675;52.870;-1.416;2023-05-19T10:55:44;12.43;;;5.88;;
28447;SDS011;15675;52.870;-1.416;2023-05-19T10:58:12;10.05;;;5.95;;
28447;SDS011;15675;52.870;-1.416;2023-05-19T11:00:38;10.48;;;5.30;;
28447;SDS011;15675;52.870;-1.416;2023-05-19T11:03:12;9.18;;;4.85;;
28447;SDS011;15675;52.870;-1.416;2023-05-19T11:05:40;11.80;;;4.85;;
28447;SDS011;15675;52.870;-1.416;2023-05-19T11:08:09;10.85;;;5.93;;
28447;SDS011;15675;52.870;-1.416;2023-05-19T11:10:36;12.35;;;5.53;;
28447;SDS011;15675;52.870;-1.416;2023-05-19T11:13:03;9.60;;;4.43;;
28447;SDS011;15675;52.870;-1.416;2023-05-19T11:15:33;14.13;;;4.50;;
28447;SDS011;15675;52.870;-1.416;2023-05-19T11:18:00;11.57;;;4.65;;
28447;SDS011;15675;52.870;-1.416;2023-05-19T11:20:27;9.05;;;4.53;;
28447;SDS011;15675;52.870;-1.416;2023-05-19T11:23:03;6.85;;;4.07;;
28447;SDS011;15675;52.870;-1.416;2023-05-19T11:25:43;8.60;;;4.28;;
28447;SDS011;15675;52.870;-1.416;2023-05-19T11:28:14;10.52;;;4.57;;
28447;SDS011;15675;52.870;-1.416;2023-05-19T11:30:43;8.73;;;4.40;;
28447;SDS011;15675;52.870;-1.416;2023-05-19T11:33:11;7.03;;;4.10;;
28447;SDS011;15675;52.870;-1.416;2023-05-19T11:35:38;8.95;;;3.70;;
28447;SDS011;15675;52.870;-1.416;2023-05-19T11:38:04;11.25;;;4.40;;
28447;SDS011;15675;52.870;-1.416;2023-05-19T11:40:31;10.15;;;3.65;;
28447;SDS011;15675;52.870;-1.416;2023-05-19T11:42:58;7.88;;;4.55;;
28447;SDS011;15675;52.870;-1.416;2023-05-19T11:45:26;10.57;;;4.20;;
28447;SDS011;15675;52.870;-1.416;2023-05-19T11:47:54;13.80;;;3.97;;
28447;SDS011;15675;52.870;-1.416;2023-05-19T11:50:21;10.30;;;4.13;;
28447;SDS011;15675;52.870;-1.416;2023-05-19T11:52:49;7.40;;;4.43;;
28447;SDS011;15675;52.870;-1.416;2023-05-19T11:55:16;10.00;;;4.40;;
28447;SDS011;15675;52.870;-1.416;2023-05-19T12:00:29;10.20;;;4.18;;
28447;SDS011;15675;52.870;-1.416;2023-05-19T12:03:01;8.65;;;4.32;;
28447;SDS011;15675;52.870;-1.416;2023-05-19T12:05:27;10.13;;;4.57;;
28447;SDS011;15675;52.870;-1.416;2023-05-19T12:07:53;9.35;;;3.83;;
28447;SDS011;15675;52.870;-1.416;2023-05-19T12:10:23;10.10;;;3.97;;
28447;SDS011;15675;52.870;-1.416;2023-05-19T12:12:51;8.18;;;4.00;;
28447;SDS011;15675;52.870;-1.416;2023-05-19T12:15:18;9.15;;;3.83;;
28447;SDS011;15675;52.870;-1.416;2023-05-19T12:18:01;12.27;;;3.95;;
28447;SDS011;15675;52.870;-1.416;2023-05-19T12:20:28;10.45;;;4.32;;
28447;SDS011;15675;52.870;-1.416;2023-05-19T12:22:59;8.02;;;3.90;;
28447;SDS011;15675;52.870;-1.416;2023-05-19T12:25:26;10.60;;;4.65;;
28447;SDS011;15675;52.870;-1.416;2023-05-19T12:27:57;11.07;;;5.57;;
28447;SDS011;15675;52.870;-1.416;2023-05-19T12:30:26;10.52;;;4.93;;
28447;SDS011;15675;52.870;-1.416;2023-05-19T12:32:53;11.50;;;4.57;;
28447;SDS011;15675;52.870;-1.416;2023-05-19T12:35:24;10.20;;;4.88;;
28447;SDS011;15675;52.870;-1.416;2023-05-19T12:37:53;9.68;;;5.00;;
28447;SDS011;15675;52.870;-1.416;2023-05-19T12:40:19;9.85;;;5.00;;
28447;SDS011;15675;52.870;-1.416;2023-05-19T12:42:46;12.35;;;5.75;;
28447;SDS011;15675;52.870;-1.416;2023-05-19T12:45:18;8.07;;;5.07;;
28447;SDS011;15675;52.870;-1.416;2023-05-19T12:47:47;10.80;;;4.22;;
28447;SDS011;15675;52.870;-1.416;2023-05-19T12:50:13;14.80;;;5.22;;
28447;SDS011;15675;52.870;-1.416;2023-05-19T12:52:41;14.05;;;5.80;;
28447;SDS011;15675;52.870;-1.416;2023-05-19T12:55:09;11.13;;;5.85;;
28447;SDS011;15675;52.870;-1.416;2023-05-19T12:57:36;11.27;;;5.00;;
28447;SDS011;15675;52.870;-1.416;2023-05-19T13:00:07;8.93;;;4.53;;
28447;SDS011;15675;52.870;-1.416;2023-05-19T13:05:32;9.63;;;4.13;;
28447;SDS011;15675;52.870;-1.416;2023-05-19T13:08:04;9.45;;;4.40;;
28447;SDS011;15675;52.870;-1.416;2023-05-19T13:10:32;10.00;;;4.53;;
28447;SDS011;15675;52.870;-1.416;2023-05-19T13:12:59;9.05;;;4.18;;
28447;SDS011;15675;52.870;-1.416;2023-05-19T13:15:26;9.93;;;3.95;;
28447;SDS011;15675;52.870;-1.416;2023-05-19T13:17:59;9.98;;;4.10;;
28447;SDS011;15675;52.870;-1.416;2023-05-19T13:20:26;11.45;;;6.57;;
28447;SDS011;15675;52.870;-1.416;2023-05-19T13:22:52;15.07;;;7.30;;
28447;SDS011;15675;52.870;-1.416;2023-05-19T13:25:18;14.85;;;6.70;;
28447;SDS011;15675;52.870;-1.416;2023-05-19T13:27:46;10.27;;;6.95;;
28447;SDS011;15675;52.870;-1.416;2023-05-19T13:30:12;12.45;;;7.43;;
28447;SDS011;15675;52.870;-1.416;2023-05-19T13:32:40;12.68;;;7.28;;
28447;SDS011;15675;52.870;-1.416;2023-05-19T13:35:06;15.95;;;8.13;;
28447;SDS011;15675;52.870;-1.416;2023-05-19T13:37:33;12.02;;;7.00;;
28447;SDS011;15675;52.870;-1.416;2023-05-19T13:39:59;11.10;;;6.05;;
28447;SDS011;15675;52.870;-1.416;2023-05-19T13:42:25;13.30;;;6.95;;
28447;SDS011;15675;52.870;-1.416;2023-05-19T13:44:54;12.15;;;7.47;;
28447;SDS011;15675;52.870;-1.416;2023-05-19T13:47:22;11.73;;;6.93;;
28447;SDS011;15675;52.870;-1.416;2023-05-19T13:49:48;13.02;;;6.53;;
28447;SDS011;15675;52.870;-1.416;2023-05-19T13:52:14;10.32;;;6.68;;
28447;SDS011;15675;52.870;-1.416;2023-05-19T13:54:40;16.52;;;7.22;;
28447;SDS011;15675;52.870;-1.416;2023-05-19T13:57:06;15.48;;;7.07;;
28447;SDS011;15675;52.870;-1.416;2023-05-19T13:59:32;14.40;;;7.05;;
28447;SDS011;15675;52.870;-1.416;2023-05-19T14:01:58;12.38;;;6.38;;
28447;SDS011;15675;52.870;-1.416;2023-05-19T14:04:25;13.05;;;6.47;;
28447;SDS011;15675;52.870;-1.416;2023-05-19T14:06:50;11.07;;;7.28;;
28447;SDS011;15675;52.870;-1.416;2023-05-19T14:09:16;13.25;;;6.93;;
28447;SDS011;15675;52.870;-1.416;2023-05-19T14:11:42;15.95;;;6.93;;
28447;SDS011;15675;52.870;-1.416;2023-05-19T14:14:08;10.57;;;6.15;;
28447;SDS011;15675;52.870;-1.416;2023-05-19T14:16:34;14.07;;;7.55;;
28447;SDS011;15675;52.870;-1.416;2023-05-19T14:19:00;12.40;;;6.60;;
28447;SDS011;15675;52.870;-1.416;2023-05-19T14:21:26;12.98;;;6.78;;
28447;SDS011;15675;52.870;-1.416;2023-05-19T14:23:52;12.90;;;7.10;;
28447;SDS011;15675;52.870;-1.416;2023-05-19T14:26:17;13.40;;;6.53;;
28447;SDS011;15675;52.870;-1.416;2023-05-19T14:28:44;17.10;;;6.88;;
28447;SDS011;15675;52.870;-1.416;2023-05-19T14:31:10;10.82;;;6.05;;
28447;SDS011;15675;52.870;-1.416;2023-05-19T14:33:37;9.55;;;6.50;;
28447;SDS011;15675;52.870;-1.416;2023-05-19T14:36:04;12.35;;;6.55;;